Terminal Aerodrome Forecast
Issued by NWS

Home | Current Version | Previous Version | Text Only | Print | Product List | Glossary On
Versions: 1 2 3 4 5 6 7 8 9 10 11 12 13 14 15 16 17
974
FTUS44 KLUB 301128
TAFCDS
TAF
KCDS 301128Z 3012/3112 20010KT P6SM FEW060 BKN100 BKN250
      TEMPO 3012/3014 VRB10KT -TSRA BKN060CB=

USA.gov is the U.S. government's official web portal to all federal, state and local government web resources and services.